Nearby METAR Reports

 

KAIK - Aiken, South Carolina, USA
Distance from station: NE 8mi, 13km
Updated: Thu, 29-Oct-2020 07:15 EDT
Overcast
Overcast
 Wind from S
Wind: S 28 km/h, Gust: 41 km/h
Temperature: 75°F , 24°C
Dew Point: 72°F , 22°C
Humidity: 89%
Barometer: 29.75 inHg , 1007.5 hPa
Clouds: Overcast
Visibility: 16 km
Cloud details: Overcast 1700 ft
2020/10/29 11:15 KAIK 291115Z AUTO 17015G22KT 10SM OVC017 24/22 A2975 RMK AO2 T02440219
KDNL - Augusta/Daniel, Georgia, USA
Distance from station: WSW 16mi, 26km
Updated: Thu, 29-Oct-2020 06:53 EDT
Overcast
Overcast
 Wind from S
Wind: S 35 km/h, Gust: 48 km/h
Temperature: 79°F , 26°C
Dew Point: 72°F , 22°C
Humidity: 79%
Barometer: 29.74 inHg , 1007.1 hPa
Clouds: Overcast
Visibility: 16 km
Cloud details: Mostly cloudy 2400 ft
Overcast 3000 ft
2020/10/29 10:53 KDNL 291053Z AUTO 18019G26KT 10SM BKN024 OVC030 26/22 A2974 RMK AO2 PK WND 19028/1021 SLP063 T02610217
 
KAGS - Augusta/Bush, Georgia, USA
Distance from station: SW 18mi, 28km
Updated: Thu, 29-Oct-2020 06:53 EDT
Overcast
Overcast
 Wind from S
Wind: S 22 km/h, Gust: 41 km/h
Temperature: 81°F , 27°C
Heat Index: 85°F , 29°C
Dew Point: 72°F , 22°C
Humidity: 74%
Barometer: 29.72 inHg , 1006.4 hPa
Clouds: Overcast
Visibility: 16 km
Cloud details: Mostly cloudy 2500 ft
Overcast 3400 ft
2020/10/29 10:53 KAGS 291053Z 19012G22KT 10SM BKN025 OVC034 27/22 A2972 RMK AO2 PK WND 19028/1010 SLP062 T02670217 $
KBNL - Barnwell, South Carolina, USA
Distance from station: SE 33mi, 52km
Updated: Thu, 29-Oct-2020 07:15 EDT
Overcast
Overcast
 Wind from S
Wind: S 22 km/h
Temperature: 77°F , 25°C
Dew Point: 72°F , 22°C
Humidity: 83%
Barometer: 29.76 inHg , 1007.8 hPa
Clouds: Overcast
Visibility: 16 km
Cloud details: Mostly cloudy 2000 ft
Mostly cloudy 2400 ft
Overcast 3100 ft
2020/10/29 11:15 KBNL 291115Z AUTO 18012KT 10SM BKN020 BKN024 OVC031 25/22 A2976 RMK AO2
 
KHQU - Mcduffie/Thomson, Georgia, USA
Distance from station: W 42mi, 68km
Updated: Thu, 29-Oct-2020 07:15 EDT
Overcast
Overcast
 Wind from WSW
Wind: WSW 20 km/h, Gust: 52 km/h
Temperature: 77°F , 25°C
Dew Point: 72°F , 22°C
Humidity: 83%
Barometer: 29.70 inHg , 1005.8 hPa
Clouds: Overcast
Visibility: 16 km
Cloud details: Mostly cloudy 2500 ft
Overcast 3200 ft
2020/10/29 11:15 KHQU 291115Z AUTO 24011G28KT 10SM BKN025 OVC032 25/22 A2970 RMK AO2 T02460223
KCAE - Columbia, South Carolina, USA
Distance from station: ENE 46mi, 74km
Updated: Thu, 29-Oct-2020 06:56 EDT
Overcast
Overcast
 Wind from S
Wind: S 26 km/h, Gust: 46 km/h
Temperature: 77°F , 25°C
Dew Point: 72°F , 22°C
Humidity: 83%
Barometer: 29.72 inHg , 1006.4 hPa
Clouds: Overcast
Visibility: 16 km
Cloud details: Mostly cloudy 2200 ft
Overcast 2900 ft
2020/10/29 10:56 KCAE 291056Z 17014G25KT 10SM BKN022 OVC029 25/22 A2972 RMK AO2 RAB35E48 SLP062 P0000 T02500217
 
KAQX - Allendale, South Carolina, USA
Distance from station: SE 50mi, 80km
Updated: Thu, 29-Oct-2020 07:15 EDT
Overcast
Overcast
 Wind from S
Wind: S 15 km/h, Gust: 30 km/h
Temperature: 79°F , 26°C
Dew Point: 73°F , 23°C
Humidity: 84%
Barometer: 29.78 inHg , 1008.5 hPa
Clouds: Overcast
Visibility: 16 km
Cloud details: Mostly cloudy 2100 ft
Overcast 2700 ft
2020/10/29 11:15 KAQX 291115Z AUTO 17008G16KT 150V210 10SM BKN021 OVC027 26/23 A2978 RMK AO2